Gore Bay, Canada
Current Conditions -  °F | °C
As of 10:00 AM on Sunday 21 Dec 2014 (Local Time) from CYZE Reporting Station
Overcast Overcast  
Wind Chill: 18°   Ceiling: 3000
Heat Index: 25°   Visibility: 9mi
Dew Point: 23°   Wind: 6mph
Humidity: 93%   Direction: 80°E
Pressure: 30.26"   Gusts: NA
Location:  45.92°N, 82.47°W
Report Text: CYZE 211500Z AUTO 08005KT 9SM OVC030 M04/M05 A3026 RMK ICG SLP259
Loading
Personal Weather Stations






























Interactive Weather Map New forecast layout! Learn more

10-Day Weather Forecast

Advertisements
Track Severe Weather on mobile